createdAt,value
2019-04-06T00:00:58.235Z,64.57
2019-04-06T00:04:06.916Z,59.37
2019-04-06T00:07:15.445Z,60.97
2019-04-06T00:10:34.278Z,58.67
2019-04-06T00:13:44.037Z,55.20
2019-04-06T00:16:52.529Z,58.77
2019-04-06T00:20:01.239Z,63.03
2019-04-06T00:23:09.956Z,54.67
2019-04-06T00:26:28.846Z,59.57
2019-04-06T00:29:48.205Z,54.47
2019-04-06T00:33:03.841Z,59.07
2019-04-06T00:36:13.042Z,58.47
2019-04-06T00:39:21.794Z,60.27
2019-04-06T00:42:30.321Z,57.00
2019-04-06T00:45:49.172Z,56.90
2019-04-06T00:48:57.775Z,57.23
2019-04-06T00:52:09.419Z,57.83
2019-04-06T00:55:18.050Z,56.30
2019-04-06T00:58:26.657Z,60.30
2019-04-06T01:01:45.409Z,63.30
2019-04-06T01:04:54.086Z,61.13
2019-04-06T01:08:02.687Z,58.20
2019-04-06T01:11:11.411Z,57.27
2019-04-06T01:14:20.020Z,56.63
2019-04-06T01:17:28.565Z,58.17
2019-04-06T01:20:37.262Z,59.83
2019-04-06T01:23:46.078Z,63.70
2019-04-06T01:26:54.606Z,56.17
2019-04-06T01:30:14.261Z,56.87
2019-04-06T01:33:22.876Z,59.27
2019-04-06T01:36:41.735Z,54.40
2019-04-06T01:39:50.433Z,58.70
2019-04-06T01:42:59.088Z,58.17
2019-04-06T01:46:07.731Z,54.63
2019-04-06T01:49:16.386Z,61.33
2019-04-06T01:52:25.182Z,62.07
2019-04-06T01:55:33.798Z,59.53
2019-04-06T01:58:42.404Z,59.23
2019-04-06T02:01:55.380Z,54.63
2019-04-06T02:05:04.616Z,55.67
2019-04-06T02:08:13.995Z,56.13
2019-04-06T02:11:24.003Z,60.43
2019-04-06T02:14:32.731Z,57.93
2019-04-06T02:17:51.536Z,58.00
2019-04-06T02:21:00.322Z,57.17
2019-04-06T02:24:09.128Z,57.00
2019-04-06T02:27:17.947Z,54.03
2019-04-06T02:30:33.378Z,55.37
2019-04-06T02:34:01.316Z,54.43
2019-04-06T02:37:22.922Z,58.40
2019-04-06T02:41:02.806Z,55.07
2019-04-06T02:44:11.451Z,56.10
2019-04-06T02:47:20.087Z,60.33
2019-04-06T02:50:28.809Z,53.97
2019-04-06T02:53:47.716Z,53.47
2019-04-06T02:56:56.349Z,55.17
2019-04-06T03:00:06.336Z,55.83
2019-04-06T03:03:15.149Z,57.67
2019-04-06T03:06:23.775Z,55.83
2019-04-06T03:09:33.208Z,58.47
2019-04-06T03:12:41.753Z,55.37
2019-04-06T03:15:50.435Z,55.57
2019-04-06T03:18:58.953Z,54.33
2019-04-06T03:22:07.590Z,55.77
2019-04-06T03:25:16.252Z,58.40
2019-04-06T03:28:24.550Z,57.93
2019-04-06T03:31:33.321Z,53.27
2019-04-06T03:34:52.653Z,55.37
2019-04-06T03:38:01.607Z,52.67
2019-04-06T03:41:20.833Z,48.57
2019-04-06T03:44:29.673Z,52.20
2019-04-06T03:47:38.600Z,50.23
2019-04-06T03:50:57.782Z,52.37
2019-04-06T03:54:06.441Z,52.57
2019-04-06T03:57:16.937Z,53.33
2019-04-06T04:00:25.424Z,53.23
2019-04-06T04:03:34.071Z,53.50
2019-04-06T04:06:42.671Z,54.53
2019-04-06T04:09:51.289Z,52.43
2019-04-06T04:13:00.197Z,50.60
2019-04-06T04:16:08.788Z,57.03
2019-04-06T04:19:17.420Z,51.40
2019-04-06T04:22:36.704Z,50.87
2019-04-06T04:25:45.229Z,51.13
2019-04-06T04:29:04.554Z,53.27
2019-04-06T04:32:13.466Z,52.83
2019-04-06T04:35:23.043Z,50.13
2019-04-06T04:38:31.803Z,55.37
2019-04-06T04:41:40.715Z,55.13
2019-04-06T04:44:49.472Z,56.70
2019-04-06T04:47:58.084Z,55.00
2019-04-06T04:51:06.700Z,50.20
2019-04-06T04:54:25.498Z,53.83
2019-04-06T04:57:40.076Z,59.50
2019-04-06T05:00:44.526Z,55.13
2019-04-06T05:03:53.314Z,58.50
2019-04-06T05:07:01.921Z,62.57
2019-04-06T05:10:10.571Z,60.47
2019-04-06T05:13:19.197Z,61.90
2019-04-06T05:16:27.931Z,64.97
2019-04-06T05:19:36.544Z,62.07
2019-04-06T05:22:45.187Z,61.83
2019-04-06T05:26:04.255Z,61.17
2019-04-06T05:29:12.911Z,65.90
2019-04-06T05:32:21.555Z,62.77
2019-04-06T05:35:30.193Z,65.60
2019-04-06T05:38:38.829Z,67.87
2019-04-06T05:41:47.487Z,67.60
2019-04-06T05:44:56.113Z,66.97
2019-04-06T05:48:04.754Z,67.97
2019-04-06T05:51:13.376Z,68.10
2019-04-06T05:54:32.243Z,66.30
2019-04-06T05:57:40.879Z,68.40
2019-04-06T06:00:49.412Z,72.33
2019-04-06T06:03:58.038Z,72.77
2019-04-06T06:07:06.991Z,73.60
2019-04-06T06:10:15.667Z,76.90
2019-04-06T06:13:24.318Z,81.80
2019-04-06T06:16:32.877Z,76.10
2019-04-06T06:19:41.510Z,75.03
2019-04-06T06:23:00.402Z,81.20
2019-04-06T06:26:08.937Z,78.73
2019-04-06T06:29:17.714Z,79.33
2019-04-06T06:32:26.701Z,81.60
2019-04-06T06:35:35.003Z,79.57
2019-04-06T06:38:43.525Z,82.07
2019-04-06T06:41:52.204Z,78.47
2019-04-06T06:45:00.849Z,82.03
2019-04-06T06:48:09.839Z,79.67
2019-04-06T06:51:18.713Z,78.33
2019-04-06T06:54:27.509Z,82.77
2019-04-06T06:57:36.210Z,82.97
2019-04-06T07:00:45.471Z,81.60
2019-04-06T07:03:54.130Z,83.97
2019-04-06T07:07:02.852Z,80.47
2019-04-06T07:10:12.275Z,77.00
2019-04-06T07:13:20.979Z,76.43
2019-04-06T07:16:32.907Z,75.40
2019-04-06T07:19:41.553Z,71.73
2019-04-06T07:22:50.285Z,77.43
2019-04-06T07:25:59.141Z,72.53
2019-04-06T07:29:07.999Z,71.90
2019-04-06T07:32:16.638Z,73.13
2019-04-06T07:35:25.311Z,67.90
2019-04-06T07:38:33.696Z,66.87
2019-04-06T07:41:52.703Z,64.20
2019-04-06T07:45:01.291Z,68.17
2019-04-06T07:48:10.012Z,66.77
2019-04-06T07:51:18.629Z,64.00
2019-04-06T07:54:27.284Z,60.57
2019-04-06T07:57:37.705Z,64.17
2019-04-06T08:00:46.629Z,61.40
2019-04-06T08:03:55.332Z,61.00
2019-04-06T08:07:04.007Z,58.60
2019-04-06T08:10:12.769Z,58.43
2019-04-06T08:13:21.572Z,53.03
2019-04-06T08:16:30.325Z,56.80
2019-04-06T08:19:38.965Z,57.47
2019-04-06T08:22:47.580Z,51.83
2019-04-06T08:26:06.742Z,53.37
2019-04-06T08:29:16.408Z,51.77
2019-04-06T08:32:24.967Z,54.07
2019-04-06T08:35:33.685Z,52.17
2019-04-06T08:38:52.627Z,53.60
2019-04-06T08:42:01.477Z,49.73
2019-04-06T08:45:10.340Z,53.83
2019-04-06T08:48:18.931Z,51.13
2019-04-06T08:51:27.619Z,52.40
2019-04-06T08:54:36.190Z,49.07
2019-04-06T08:57:44.777Z,48.47
2019-04-06T09:00:53.347Z,52.03
2019-04-06T09:04:01.880Z,51.13
2019-04-06T09:07:20.841Z,53.87
2019-04-06T09:10:29.541Z,50.10
2019-04-06T09:13:40.357Z,51.23
2019-04-06T09:16:48.451Z,49.47
2019-04-06T09:19:57.040Z,53.40
2019-04-06T09:23:05.665Z,48.73
2019-04-06T09:26:14.201Z,48.23
2019-04-06T09:29:33.005Z,48.13
2019-04-06T09:32:41.719Z,52.23
2019-04-06T09:35:50.295Z,52.57
2019-04-06T09:38:58.820Z,45.47
2019-04-06T09:42:07.517Z,49.73
2019-04-06T09:45:47.355Z,44.30
2019-04-06T09:49:23.796Z,45.37
2019-04-06T09:53:02.733Z,42.87
2019-04-06T09:56:19.256Z,42.67
2019-04-06T09:59:57.600Z,41.57
2019-04-06T10:03:22.574Z,43.20
2019-04-06T10:06:54.105Z,40.57
2019-04-06T10:10:20.532Z,40.90
2019-04-06T10:13:53.600Z,42.07
2019-04-06T10:17:17.796Z,39.53
2019-04-06T10:20:51.955Z,39.03
2019-04-06T10:24:18.493Z,44.47
2019-04-06T10:27:41.959Z,38.90
2019-04-06T10:31:08.505Z,39.77
2019-04-06T10:34:36.120Z,39.93
2019-04-06T10:38:03.643Z,37.80
2019-04-06T10:41:37.469Z,39.30
2019-04-06T10:45:04.081Z,36.73
2019-04-06T10:48:20.270Z,40.57
2019-04-06T10:51:46.093Z,33.30
2019-04-06T10:55:13.678Z,30.57
2019-04-06T10:58:39.185Z,35.00
2019-04-06T11:02:27.935Z,35.83
2019-04-06T11:05:53.220Z,30.37
2019-04-06T11:09:32.750Z,30.50
2019-04-06T11:13:33.537Z,30.43
2019-04-06T11:17:19.282Z,30.20
2019-04-06T11:20:44.949Z,28.70
2019-04-06T11:24:36.319Z,30.67
2019-04-06T11:28:04.335Z,29.17
2019-04-06T11:31:34.752Z,27.00
2019-04-06T11:35:03.097Z,25.47
2019-04-06T11:38:48.050Z,28.30
2019-04-06T11:42:27.593Z,29.10
2019-04-06T11:45:48.735Z,24.07
2019-04-06T11:49:04.859Z,24.97
2019-04-06T11:52:49.748Z,25.93
2019-04-06T11:56:05.294Z,22.57
2019-04-06T11:59:28.632Z,23.57
2019-04-06T12:02:59.997Z,22.67
2019-04-06T12:06:27.496Z,23.37
2019-04-06T12:10:19.658Z,23.00
2019-04-06T12:13:47.090Z,21.47
2019-04-06T12:17:14.870Z,22.97
2019-04-06T12:20:36.929Z,22.13
2019-04-06T12:24:12.988Z,25.10
2019-04-06T12:27:47.495Z,22.37
2019-04-06T12:31:07.342Z,22.73
2019-04-06T12:34:33.919Z,21.43
2019-04-06T12:38:02.782Z,23.80
2019-04-06T12:41:23.948Z,22.10
2019-04-06T12:44:50.055Z,20.93
2019-04-06T12:48:52.680Z,22.90
2019-04-06T12:52:19.521Z,23.03
2019-04-06T12:55:43.918Z,25.13
2019-04-06T12:59:25.723Z,26.03
2019-04-06T13:03:02.146Z,23.10
2019-04-06T13:06:39.297Z,22.53
2019-04-06T13:10:05.870Z,17.90
2019-04-06T13:13:20.295Z,20.67
2019-04-06T13:16:48.031Z,22.07
2019-04-06T13:20:11.690Z,22.23
2019-04-06T13:23:37.962Z,23.27
2019-04-06T13:27:12.155Z,21.17
2019-04-06T13:30:48.567Z,25.63
2019-04-06T13:34:15.151Z,19.73
2019-04-06T13:37:31.810Z,23.30
2019-04-06T13:41:02.257Z,21.47
2019-04-06T13:44:36.382Z,23.10
2019-04-06T13:48:03.879Z,21.23
2019-04-06T13:51:53.266Z,18.93
2019-04-06T13:55:25.530Z,18.33
2019-04-06T13:58:55.220Z,18.63
2019-04-06T14:02:20.507Z,18.80
2019-04-06T14:05:46.628Z,17.57
2019-04-06T14:09:02.031Z,18.60
2019-04-06T14:12:23.266Z,17.50
2019-04-06T14:15:45.987Z,17.20
2019-04-06T14:19:13.382Z,17.27
2019-04-06T14:22:42.436Z,16.97
2019-04-06T14:26:08.467Z,15.80
2019-04-06T14:29:38.482Z,15.73
2019-04-06T14:32:57.174Z,17.77
2019-04-06T14:36:23.144Z,18.00
2019-04-06T14:39:56.680Z,17.80
2019-04-06T14:43:39.751Z,16.63
2019-04-06T14:46:59.868Z,15.73
2019-04-06T14:50:30.672Z,14.27
2019-04-06T14:54:32.666Z,15.50
2019-04-06T14:58:07.118Z,15.17
2019-04-06T15:01:45.415Z,16.40
2019-04-06T15:05:00.054Z,17.00
2019-04-06T15:08:27.519Z,14.00
2019-04-06T15:11:45.835Z,14.13
2019-04-06T15:15:21.234Z,13.93
2019-04-06T15:18:52.413Z,12.67
2019-04-06T15:22:18.303Z,13.17
2019-04-06T15:25:35.699Z,15.03
2019-04-06T15:29:36.934Z,16.73
2019-04-06T15:33:21.473Z,23.27
2019-04-06T15:36:48.649Z,21.60
2019-04-06T15:40:21.607Z,22.87
2019-04-06T15:43:54.887Z,21.53
2019-04-06T15:47:37.447Z,22.20
2019-04-06T15:51:17.020Z,24.03
2019-04-06T15:54:34.745Z,25.83
2019-04-06T15:57:50.130Z,22.63
2019-04-06T16:01:20.505Z,22.07
2019-04-06T16:04:58.933Z,25.07
2019-04-06T16:08:13.591Z,24.23
2019-04-06T16:12:00.520Z,23.97
2019-04-06T16:15:26.167Z,24.00
2019-04-06T16:19:26.542Z,25.17
2019-04-06T16:22:56.962Z,26.33
2019-04-06T16:26:29.085Z,24.73
2019-04-06T16:30:11.323Z,26.07
2019-04-06T16:34:03.431Z,23.90
2019-04-06T16:37:52.637Z,25.40
2019-04-06T16:41:44.614Z,25.90
2019-04-06T16:44:58.701Z,24.63
2019-04-06T16:48:29.162Z,24.17
2019-04-06T16:51:54.916Z,26.57
2019-04-06T16:55:25.847Z,23.60
2019-04-06T16:59:08.474Z,23.53
2019-04-06T17:02:50.834Z,24.97
2019-04-06T17:06:30.551Z,26.20
2019-04-06T17:10:02.216Z,27.93
2019-04-06T17:13:29.583Z,25.00
2019-04-06T17:17:21.254Z,25.03
2019-04-06T17:20:53.391Z,26.20
2019-04-06T17:24:10.344Z,25.60
2019-04-06T17:27:57.242Z,27.37
2019-04-06T17:31:30.830Z,30.80
2019-04-06T17:34:59.581Z,26.93
2019-04-06T17:38:18.067Z,25.53
2019-04-06T17:41:34.069Z,26.93
2019-04-06T17:45:09.101Z,25.57
2019-04-06T17:48:32.286Z,29.40
2019-04-06T17:52:11.845Z,28.43
2019-04-06T17:55:37.326Z,25.80
2019-04-06T17:58:58.396Z,28.57
2019-04-06T18:02:17.945Z,27.83
2019-04-06T18:05:45.863Z,29.67
2019-04-06T18:09:13.035Z,27.23
2019-04-06T18:12:32.423Z,28.00
2019-04-06T18:15:41.665Z,26.90
2019-04-06T18:18:50.314Z,27.10
2019-04-06T18:21:58.867Z,27.10
2019-04-06T18:25:07.608Z,26.10
2019-04-06T18:28:16.147Z,27.13
2019-04-06T18:32:02.994Z,29.10
2019-04-06T18:35:13.078Z,28.87
2019-04-06T18:38:31.920Z,28.07
2019-04-06T18:41:40.870Z,26.90
2019-04-06T18:44:49.861Z,30.27
2019-04-06T18:47:58.478Z,28.10
2019-04-06T18:51:07.022Z,28.27
2019-04-06T18:54:15.675Z,27.07
2019-04-06T18:57:24.233Z,26.60
2019-04-06T19:00:43.547Z,29.13
2019-04-06T19:04:02.449Z,28.77
2019-04-06T19:07:11.178Z,30.47
2019-04-06T19:10:20.309Z,28.87
2019-04-06T19:13:39.428Z,30.53
2019-04-06T19:16:48.214Z,31.73
2019-04-06T19:19:56.752Z,35.60
2019-04-06T19:23:05.294Z,29.60
2019-04-06T19:26:14.057Z,28.17
2019-04-06T19:29:22.699Z,28.03
2019-04-06T19:32:31.259Z,31.17
2019-04-06T19:35:40.505Z,31.80
2019-04-06T19:38:49.614Z,30.13
2019-04-06T19:41:58.373Z,33.40
2019-04-06T19:45:07.828Z,29.33
2019-04-06T19:48:26.847Z,29.23
2019-04-06T19:51:36.477Z,31.40
2019-04-06T19:54:46.059Z,31.00
2019-04-06T19:57:54.937Z,32.83
2019-04-06T20:01:03.512Z,31.70
2019-04-06T20:04:12.168Z,30.77
2019-04-06T20:07:20.717Z,30.33
2019-04-06T20:10:29.559Z,35.23
2019-04-06T20:13:38.185Z,33.13
2019-04-06T20:16:46.712Z,31.00
2019-04-06T20:19:55.344Z,31.73
2019-04-06T20:23:14.120Z,30.70
2019-04-06T20:26:23.201Z,31.80
2019-04-06T20:29:31.793Z,36.10
2019-04-06T20:32:40.918Z,34.40
2019-04-06T20:35:59.891Z,34.90
2019-04-06T20:39:10.353Z,33.70
2019-04-06T20:42:19.969Z,35.93
2019-04-06T20:45:28.591Z,36.07
2019-04-06T20:48:37.213Z,33.73
2019-04-06T20:51:58.658Z,33.27
2019-04-06T20:55:07.213Z,35.10
2019-04-06T20:58:15.775Z,34.13
2019-04-06T21:01:34.622Z,35.83
2019-04-06T21:04:43.164Z,39.10
2019-04-06T21:07:51.677Z,36.70
2019-04-06T21:11:00.327Z,35.40
2019-04-06T21:14:09.010Z,39.43
2019-04-06T21:17:17.527Z,35.07
2019-04-06T21:20:36.862Z,34.93
2019-04-06T21:23:56.086Z,39.20
2019-04-06T21:27:15.239Z,34.80
2019-04-06T21:30:24.738Z,35.60
2019-04-06T21:33:35.118Z,36.03
2019-04-06T21:36:43.672Z,38.60
2019-04-06T21:40:02.519Z,36.97
2019-04-06T21:43:11.099Z,36.10
2019-04-06T21:46:19.752Z,37.33
2019-04-06T21:49:28.868Z,34.70
2019-04-06T21:52:38.675Z,36.83
2019-04-06T21:55:47.470Z,42.63
2019-04-06T21:58:56.198Z,36.20
2019-04-06T22:02:07.046Z,37.07
2019-04-06T22:05:15.929Z,36.80
2019-04-06T22:08:24.964Z,37.27
2019-04-06T22:11:34.147Z,35.10
2019-04-06T22:14:53.117Z,38.07
2019-04-06T22:18:03.471Z,36.73
2019-04-06T22:21:12.524Z,35.60
2019-04-06T22:24:31.748Z,36.53
2019-04-06T22:27:40.323Z,36.57
2019-04-06T22:30:48.936Z,37.77
2019-04-06T22:33:57.597Z,36.47
2019-04-06T22:37:06.252Z,35.53
2019-04-06T22:40:15.550Z,34.63
2019-04-06T22:43:24.186Z,39.23
2019-04-06T22:46:32.951Z,36.87
2019-04-06T22:49:41.605Z,36.60
2019-04-06T22:52:50.439Z,36.93
2019-04-06T22:55:59.197Z,38.23
2019-04-06T22:59:07.746Z,35.20
2019-04-06T23:02:16.728Z,36.97
2019-04-06T23:05:31.061Z,38.00
2019-04-06T23:08:40.684Z,36.70
2019-04-06T23:11:49.312Z,38.03
2019-04-06T23:14:57.963Z,37.67
2019-04-06T23:18:07.065Z,36.17
2019-04-06T23:21:15.820Z,36.20
2019-04-06T23:24:25.246Z,39.30
2019-04-06T23:27:33.867Z,38.80
2019-04-06T23:30:42.575Z,38.47
2019-04-06T23:34:02.311Z,38.27
2019-04-06T23:37:11.057Z,37.50
2019-04-06T23:40:19.368Z,41.30
2019-04-06T23:43:28.020Z,39.03
2019-04-06T23:46:36.698Z,38.67
2019-04-06T23:49:45.397Z,39.10
2019-04-06T23:52:54.039Z,39.77
2019-04-06T23:56:12.854Z,38.83
2019-04-06T23:59:22.151Z,39.63
